sensor_id;sensor_type;location;lat;lon;timestamp;temperature;humidity
11944;DHT22;6031;50.220;10.122;2022-12-05T00:03:43;2.90;99.90
11944;DHT22;6031;50.220;10.122;2022-12-05T00:06:09;2.90;99.90
11944;DHT22;6031;50.220;10.122;2022-12-05T00:08:35;2.90;99.90
11944;DHT22;6031;50.220;10.122;2022-12-05T00:11:00;2.80;99.90
11944;DHT22;6031;50.220;10.122;2022-12-05T00:13:26;2.90;99.90
11944;DHT22;6031;50.220;10.122;2022-12-05T00:15:51;3.00;99.90
11944;DHT22;6031;50.220;10.122;2022-12-05T00:18:17;3.00;99.90
11944;DHT22;6031;50.220;10.122;2022-12-05T00:20:46;2.90;99.90
11944;DHT22;6031;50.220;10.122;2022-12-05T00:23:12;2.90;99.90
11944;DHT22;6031;50.220;10.122;2022-12-05T00:25:38;2.90;99.90
11944;DHT22;6031;50.220;10.122;2022-12-05T00:28:04;2.90;99.90
11944;DHT22;6031;50.220;10.122;2022-12-05T00:30:30;2.90;99.90
11944;DHT22;6031;50.220;10.122;2022-12-05T00:32:56;2.90;99.90
11944;DHT22;6031;50.220;10.122;2022-12-05T00:35:21;2.90;99.90
11944;DHT22;6031;50.220;10.122;2022-12-05T00:37:47;2.90;99.90
11944;DHT22;6031;50.220;10.122;2022-12-05T00:40:12;2.90;99.90
11944;DHT22;6031;50.220;10.122;2022-12-05T00:42:38;2.90;99.90
11944;DHT22;6031;50.220;10.122;2022-12-05T00:45:04;2.90;99.90
11944;DHT22;6031;50.220;10.122;2022-12-05T00:47:29;2.90;99.90
11944;DHT22;6031;50.220;10.122;2022-12-05T00:49:55;2.90;99.90
11944;DHT22;6031;50.220;10.122;2022-12-05T00:52:20;2.90;99.90
11944;DHT22;6031;50.220;10.122;2022-12-05T00:54:46;2.90;99.90
11944;DHT22;6031;50.220;10.122;2022-12-05T00:57:12;2.80;99.90
11944;DHT22;6031;50.220;10.122;2022-12-05T00:59:37;2.90;99.90
11944;DHT22;6031;50.220;10.122;2022-12-05T01:02:04;2.80;99.90
11944;DHT22;6031;50.220;10.122;2022-12-05T01:04:29;3.00;99.90
11944;DHT22;6031;50.220;10.122;2022-12-05T01:06:56;2.90;99.90
11944;DHT22;6031;50.220;10.122;2022-12-05T01:09:23;2.90;99.90
11944;DHT22;6031;50.220;10.122;2022-12-05T01:11:49;2.90;99.90
11944;DHT22;6031;50.220;10.122;2022-12-05T01:14:17;2.90;99.90
11944;DHT22;6031;50.220;10.122;2022-12-05T01:16:44;2.90;99.90
11944;DHT22;6031;50.220;10.122;2022-12-05T01:19:14;2.90;99.90
11944;DHT22;6031;50.220;10.122;2022-12-05T01:21:40;3.00;99.90
11944;DHT22;6031;50.220;10.122;2022-12-05T01:24:07;2.90;99.90
11944;DHT22;6031;50.220;10.122;2022-12-05T01:26:32;2.90;99.90
11944;DHT22;6031;50.220;10.122;2022-12-05T01:28:58;2.90;99.90
11944;DHT22;6031;50.220;10.122;2022-12-05T01:31:30;3.00;99.90
11944;DHT22;6031;50.220;10.122;2022-12-05T01:33:57;3.00;99.90
11944;DHT22;6031;50.220;10.122;2022-12-05T01:36:24;3.00;99.90
11944;DHT22;6031;50.220;10.122;2022-12-05T01:38:51;3.00;99.90
11944;DHT22;6031;50.220;10.122;2022-12-05T01:41:22;2.90;99.90
11944;DHT22;6031;50.220;10.122;2022-12-05T01:46:23;3.00;99.90
11944;DHT22;6031;50.220;10.122;2022-12-05T01:48:49;3.00;99.90
11944;DHT22;6031;50.220;10.122;2022-12-05T01:51:15;3.00;99.90
11944;DHT22;6031;50.220;10.122;2022-12-05T01:53:42;2.90;99.90
11944;DHT22;6031;50.220;10.122;2022-12-05T01:56:08;2.90;99.90
11944;DHT22;6031;50.220;10.122;2022-12-05T01:58:36;2.90;99.90
11944;DHT22;6031;50.220;10.122;2022-12-05T02:01:03;2.90;99.90
11944;DHT22;6031;50.220;10.122;2022-12-05T02:03:28;2.90;99.90
11944;DHT22;6031;50.220;10.122;2022-12-05T02:05:56;2.80;99.90
11944;DHT22;6031;50.220;10.122;2022-12-05T02:08:23;2.80;99.90
11944;DHT22;6031;50.220;10.122;2022-12-05T02:10:54;2.90;99.90
11944;DHT22;6031;50.220;10.122;2022-12-05T02:13:36;2.90;99.90
11944;DHT22;6031;50.220;10.122;2022-12-05T02:27:36;2.80;99.90
11944;DHT22;6031;50.220;10.122;2022-12-05T02:30:07;2.80;99.90
11944;DHT22;6031;50.220;10.122;2022-12-05T02:32:50;2.80;99.90
11944;DHT22;6031;50.220;10.122;2022-12-05T02:40:33;2.70;99.90
11944;DHT22;6031;50.220;10.122;2022-12-05T02:43:50;2.70;99.90
11944;DHT22;6031;50.220;10.122;2022-12-05T02:46:10;2.70;99.90
11944;DHT22;6031;50.220;10.122;2022-12-05T02:48:37;2.70;99.90
11944;DHT22;6031;50.220;10.122;2022-12-05T02:51:04;2.70;99.90
11944;DHT22;6031;50.220;10.122;2022-12-05T02:53:32;2.70;99.90
11944;DHT22;6031;50.220;10.122;2022-12-05T02:56:00;2.70;99.90
11944;DHT22;6031;50.220;10.122;2022-12-05T02:58:42;2.70;99.90
11944;DHT22;6031;50.220;10.122;2022-12-05T03:01:08;2.70;99.90
11944;DHT22;6031;50.220;10.122;2022-12-05T03:03:35;2.70;99.90
11944;DHT22;6031;50.220;10.122;2022-12-05T03:08:38;2.70;99.90
11944;DHT22;6031;50.220;10.122;2022-12-05T03:11:05;2.70;99.90
11944;DHT22;6031;50.220;10.122;2022-12-05T03:13:41;2.70;99.90
11944;DHT22;6031;50.220;10.122;2022-12-05T03:16:17;2.70;99.90
11944;DHT22;6031;50.220;10.122;2022-12-05T03:18:48;2.70;99.90
11944;DHT22;6031;50.220;10.122;2022-12-05T03:21:32;2.80;99.90
11944;DHT22;6031;50.220;10.122;2022-12-05T03:24:04;2.80;99.90
11944;DHT22;6031;50.220;10.122;2022-12-05T03:26:45;2.80;99.90
11944;DHT22;6031;50.220;10.122;2022-12-05T03:30:07;2.80;99.90
11944;DHT22;6031;50.220;10.122;2022-12-05T03:32:36;2.80;99.90
11944;DHT22;6031;50.220;10.122;2022-12-05T03:37:57;2.80;99.90
11944;DHT22;6031;50.220;10.122;2022-12-05T03:43:28;2.80;99.90
11944;DHT22;6031;50.220;10.122;2022-12-05T03:48:37;2.70;99.90
11944;DHT22;6031;50.220;10.122;2022-12-05T03:51:06;2.80;99.90
11944;DHT22;6031;50.220;10.122;2022-12-05T03:53:47;2.80;99.90
11944;DHT22;6031;50.220;10.122;2022-12-05T03:56:18;2.80;99.90
11944;DHT22;6031;50.220;10.122;2022-12-05T03:59:14;2.80;99.90
11944;DHT22;6031;50.220;10.122;2022-12-05T04:01:43;2.80;99.90
11944;DHT22;6031;50.220;10.122;2022-12-05T04:04:26;2.80;99.90
11944;DHT22;6031;50.220;10.122;2022-12-05T04:06:55;2.80;99.90
11944;DHT22;6031;50.220;10.122;2022-12-05T04:09:26;2.80;99.90
11944;DHT22;6031;50.220;10.122;2022-12-05T04:12:00;2.80;99.90
11944;DHT22;6031;50.220;10.122;2022-12-05T04:14:31;2.80;99.90
11944;DHT22;6031;50.220;10.122;2022-12-05T04:17:05;2.90;99.90
11944;DHT22;6031;50.220;10.122;2022-12-05T04:19:52;3.00;99.90
11944;DHT22;6031;50.220;10.122;2022-12-05T04:22:38;3.10;99.90
11944;DHT22;6031;50.220;10.122;2022-12-05T04:25:07;3.00;99.90
11944;DHT22;6031;50.220;10.122;2022-12-05T04:30:57;3.00;99.90
11944;DHT22;6031;50.220;10.122;2022-12-05T04:36:34;2.90;99.90
11944;DHT22;6031;50.220;10.122;2022-12-05T04:39:07;2.90;99.90
11944;DHT22;6031;50.220;10.122;2022-12-05T04:41:56;2.90;99.90
11944;DHT22;6031;50.220;10.122;2022-12-05T04:44:27;2.90;99.90
11944;DHT22;6031;50.220;10.122;2022-12-05T04:46:55;2.90;99.90
11944;DHT22;6031;50.220;10.122;2022-12-05T04:49:24;3.00;99.90
11944;DHT22;6031;50.220;10.122;2022-12-05T04:51:54;2.90;99.90
11944;DHT22;6031;50.220;10.122;2022-12-05T04:54:26;2.90;99.90
11944;DHT22;6031;50.220;10.122;2022-12-05T04:56:58;3.00;99.90
11944;DHT22;6031;50.220;10.122;2022-12-05T04:59:26;2.90;99.90
11944;DHT22;6031;50.220;10.122;2022-12-05T05:01:58;3.00;99.90
11944;DHT22;6031;50.220;10.122;2022-12-05T05:04:30;3.00;99.90
11944;DHT22;6031;50.220;10.122;2022-12-05T05:06:58;3.00;99.90
11944;DHT22;6031;50.220;10.122;2022-12-05T05:09:23;3.00;99.90
11944;DHT22;6031;50.220;10.122;2022-12-05T05:11:50;3.00;99.90
11944;DHT22;6031;50.220;10.122;2022-12-05T05:14:15;3.00;99.90
11944;DHT22;6031;50.220;10.122;2022-12-05T05:16:41;3.10;99.90
11944;DHT22;6031;50.220;10.122;2022-12-05T05:19:09;3.10;99.90
11944;DHT22;6031;50.220;10.122;2022-12-05T05:21:40;3.10;99.90
11944;DHT22;6031;50.220;10.122;2022-12-05T05:24:07;3.00;99.90
11944;DHT22;6031;50.220;10.122;2022-12-05T05:26:36;3.00;99.90
11944;DHT22;6031;50.220;10.122;2022-12-05T05:29:02;3.00;99.90
11944;DHT22;6031;50.220;10.122;2022-12-05T05:31:28;3.00;99.90
11944;DHT22;6031;50.220;10.122;2022-12-05T05:33:55;3.00;99.90
11944;DHT22;6031;50.220;10.122;2022-12-05T05:36:23;3.10;99.90
11944;DHT22;6031;50.220;10.122;2022-12-05T05:38:52;3.10;99.90
11944;DHT22;6031;50.220;10.122;2022-12-05T05:41:20;3.00;99.90
11944;DHT22;6031;50.220;10.122;2022-12-05T05:43:46;3.10;99.90
11944;DHT22;6031;50.220;10.122;2022-12-05T05:46:14;3.20;99.90
11944;DHT22;6031;50.220;10.122;2022-12-05T05:48:40;3.20;99.90
11944;DHT22;6031;50.220;10.122;2022-12-05T05:51:07;3.20;99.90
11944;DHT22;6031;50.220;10.122;2022-12-05T05:53:33;3.20;99.90
11944;DHT22;6031;50.220;10.122;2022-12-05T05:56:10;3.30;99.90
11944;DHT22;6031;50.220;10.122;2022-12-05T05:58:36;3.20;99.90
11944;DHT22;6031;50.220;10.122;2022-12-05T06:01:07;3.30;99.90
11944;DHT22;6031;50.220;10.122;2022-12-05T06:03:32;3.30;99.90
11944;DHT22;6031;50.220;10.122;2022-12-05T06:06:01;3.30;99.90
11944;DHT22;6031;50.220;10.122;2022-12-05T06:08:31;3.30;99.90
11944;DHT22;6031;50.220;10.122;2022-12-05T06:10:57;3.30;99.90
11944;DHT22;6031;50.220;10.122;2022-12-05T06:13:23;3.30;99.90
11944;DHT22;6031;50.220;10.122;2022-12-05T06:15:48;3.30;99.90
11944;DHT22;6031;50.220;10.122;2022-12-05T06:18:14;3.20;99.90
11944;DHT22;6031;50.220;10.122;2022-12-05T06:20:40;3.20;99.90
11944;DHT22;6031;50.220;10.122;2022-12-05T06:23:05;3.30;99.90
11944;DHT22;6031;50.220;10.122;2022-12-05T06:25:31;3.30;99.90
11944;DHT22;6031;50.220;10.122;2022-12-05T06:27:56;3.30;99.90
11944;DHT22;6031;50.220;10.122;2022-12-05T06:30:22;3.30;99.90
11944;DHT22;6031;50.220;10.122;2022-12-05T06:32:47;3.30;99.90
11944;DHT22;6031;50.220;10.122;2022-12-05T06:35:13;3.30;99.90
11944;DHT22;6031;50.220;10.122;2022-12-05T06:37:42;3.30;99.90
11944;DHT22;6031;50.220;10.122;2022-12-05T06:40:09;3.40;99.90
11944;DHT22;6031;50.220;10.122;2022-12-05T06:42:35;3.40;99.90
11944;DHT22;6031;50.220;10.122;2022-12-05T06:45:01;3.40;99.90
11944;DHT22;6031;50.220;10.122;2022-12-05T06:47:27;3.40;99.90
11944;DHT22;6031;50.220;10.122;2022-12-05T06:49:52;3.40;99.90
11944;DHT22;6031;50.220;10.122;2022-12-05T06:52:18;3.40;99.90
11944;DHT22;6031;50.220;10.122;2022-12-05T06:54:43;3.30;99.90
11944;DHT22;6031;50.220;10.122;2022-12-05T06:57:11;3.30;99.90
11944;DHT22;6031;50.220;10.122;2022-12-05T06:59:37;3.30;99.90
11944;DHT22;6031;50.220;10.122;2022-12-05T07:02:02;3.30;99.90
11944;DHT22;6031;50.220;10.122;2022-12-05T07:04:31;3.30;99.90
11944;DHT22;6031;50.220;10.122;2022-12-05T07:06:57;3.30;99.90
11944;DHT22;6031;50.220;10.122;2022-12-05T07:09:24;3.30;99.90
11944;DHT22;6031;50.220;10.122;2022-12-05T07:12:15;3.30;99.90
11944;DHT22;6031;50.220;10.122;2022-12-05T07:14:42;3.30;99.90
11944;DHT22;6031;50.220;10.122;2022-12-05T07:17:07;3.30;99.90
11944;DHT22;6031;50.220;10.122;2022-12-05T07:19:33;3.30;99.90
11944;DHT22;6031;50.220;10.122;2022-12-05T07:21:59;3.30;99.90
11944;DHT22;6031;50.220;10.122;2022-12-05T07:24:25;3.30;99.90
11944;DHT22;6031;50.220;10.122;2022-12-05T07:26:50;3.30;99.90
11944;DHT22;6031;50.220;10.122;2022-12-05T07:29:16;3.30;99.90
11944;DHT22;6031;50.220;10.122;2022-12-05T07:31:41;3.30;99.90
11944;DHT22;6031;50.220;10.122;2022-12-05T07:34:07;3.30;99.90
11944;DHT22;6031;50.220;10.122;2022-12-05T07:36:34;3.30;99.90
11944;DHT22;6031;50.220;10.122;2022-12-05T07:38:59;3.30;99.90
11944;DHT22;6031;50.220;10.122;2022-12-05T07:41:28;3.30;99.90
11944;DHT22;6031;50.220;10.122;2022-12-05T07:43:55;3.30;99.90
11944;DHT22;6031;50.220;10.122;2022-12-05T07:46:22;3.30;99.90
11944;DHT22;6031;50.220;10.122;2022-12-05T07:48:49;3.30;99.90
11944;DHT22;6031;50.220;10.122;2022-12-05T07:51:15;3.40;99.90
11944;DHT22;6031;50.220;10.122;2022-12-05T07:53:41;3.30;99.90
11944;DHT22;6031;50.220;10.122;2022-12-05T07:56:10;3.40;99.90
11944;DHT22;6031;50.220;10.122;2022-12-05T07:58:36;3.40;99.90
11944;DHT22;6031;50.220;10.122;2022-12-05T08:03:32;3.50;99.90
11944;DHT22;6031;50.220;10.122;2022-12-05T08:06:03;3.50;99.90
11944;DHT22;6031;50.220;10.122;2022-12-05T08:08:28;3.50;99.90
11944;DHT22;6031;50.220;10.122;2022-12-05T08:10:54;3.60;99.90
11944;DHT22;6031;50.220;10.122;2022-12-05T08:13:20;3.60;99.90
11944;DHT22;6031;50.220;10.122;2022-12-05T08:15:45;3.60;99.90
11944;DHT22;6031;50.220;10.122;2022-12-05T08:18:11;3.50;99.90
11944;DHT22;6031;50.220;10.122;2022-12-05T08:20:36;3.60;99.90
11944;DHT22;6031;50.220;10.122;2022-12-05T08:23:02;3.60;99.90
11944;DHT22;6031;50.220;10.122;2022-12-05T08:25:27;3.60;99.90
11944;DHT22;6031;50.220;10.122;2022-12-05T08:27:53;3.70;99.90
11944;DHT22;6031;50.220;10.122;2022-12-05T08:30:19;3.70;99.90
11944;DHT22;6031;50.220;10.122;2022-12-05T08:32:44;3.80;99.90
11944;DHT22;6031;50.220;10.122;2022-12-05T08:35:10;3.80;99.90
11944;DHT22;6031;50.220;10.122;2022-12-05T08:37:35;3.80;99.90
11944;DHT22;6031;50.220;10.122;2022-12-05T08:40:01;3.80;99.90
11944;DHT22;6031;50.220;10.122;2022-12-05T08:42:27;3.80;99.90
11944;DHT22;6031;50.220;10.122;2022-12-05T08:44:53;3.90;99.90
11944;DHT22;6031;50.220;10.122;2022-12-05T08:47:18;3.90;99.90
11944;DHT22;6031;50.220;10.122;2022-12-05T08:49:44;3.90;99.90
11944;DHT22;6031;50.220;10.122;2022-12-05T08:52:09;4.00;99.90
11944;DHT22;6031;50.220;10.122;2022-12-05T08:54:35;4.00;99.90
11944;DHT22;6031;50.220;10.122;2022-12-05T08:57:00;4.00;99.90
11944;DHT22;6031;50.220;10.122;2022-12-05T08:59:26;4.00;99.90
11944;DHT22;6031;50.220;10.122;2022-12-05T09:01:52;4.10;99.90
11944;DHT22;6031;50.220;10.122;2022-12-05T09:04:17;4.10;99.90
11944;DHT22;6031;50.220;10.122;2022-12-05T09:06:43;4.10;99.90
11944;DHT22;6031;50.220;10.122;2022-12-05T09:09:10;4.10;99.90
11944;DHT22;6031;50.220;10.122;2022-12-05T09:11:41;4.10;99.90
11944;DHT22;6031;50.220;10.122;2022-12-05T09:14:10;4.10;99.90
11944;DHT22;6031;50.220;10.122;2022-12-05T09:16:37;4.20;99.90
11944;DHT22;6031;50.220;10.122;2022-12-05T09:19:02;4.20;99.90
11944;DHT22;6031;50.220;10.122;2022-12-05T09:21:29;4.20;99.90
11944;DHT22;6031;50.220;10.122;2022-12-05T09:23:57;4.20;99.90
11944;DHT22;6031;50.220;10.122;2022-12-05T09:26:26;4.30;99.90
11944;DHT22;6031;50.220;10.122;2022-12-05T09:28:52;4.30;99.90
11944;DHT22;6031;50.220;10.122;2022-12-05T09:31:20;4.20;99.90
11944;DHT22;6031;50.220;10.122;2022-12-05T09:33:47;4.10;99.90
11944;DHT22;6031;50.220;10.122;2022-12-05T09:36:35;4.10;99.90
11944;DHT22;6031;50.220;10.122;2022-12-05T09:39:03;4.10;99.90
11944;DHT22;6031;50.220;10.122;2022-12-05T09:47:02;4.20;99.90
11944;DHT22;6031;50.220;10.122;2022-12-05T09:49:29;4.20;99.90
11944;DHT22;6031;50.220;10.122;2022-12-05T09:51:56;4.30;99.90
11944;DHT22;6031;50.220;10.122;2022-12-05T09:54:24;4.20;99.90
11944;DHT22;6031;50.220;10.122;2022-12-05T09:56:50;4.20;99.90
11944;DHT22;6031;50.220;10.122;2022-12-05T09:59:18;4.20;99.90
11944;DHT22;6031;50.220;10.122;2022-12-05T10:01:51;4.20;99.90
11944;DHT22;6031;50.220;10.122;2022-12-05T10:04:50;4.20;99.90
11944;DHT22;6031;50.220;10.122;2022-12-05T10:15:33;4.30;99.90
11944;DHT22;6031;50.220;10.122;2022-12-05T10:18:09;4.20;99.90
11944;DHT22;6031;50.220;10.122;2022-12-05T10:20:42;4.20;99.90
11944;DHT22;6031;50.220;10.122;2022-12-05T10:24:10;4.30;99.90
11944;DHT22;6031;50.220;10.122;2022-12-05T10:26:11;4.30;99.90
11944;DHT22;6031;50.220;10.122;2022-12-05T10:31:16;4.40;99.90
11944;DHT22;6031;50.220;10.122;2022-12-05T10:33:47;4.40;99.90
11944;DHT22;6031;50.220;10.122;2022-12-05T10:36:14;4.40;99.90
11944;DHT22;6031;50.220;10.122;2022-12-05T10:38:41;4.40;99.90
11944;DHT22;6031;50.220;10.122;2022-12-05T10:41:10;4.30;99.90
11944;DHT22;6031;50.220;10.122;2022-12-05T10:43:39;4.40;99.90
11944;DHT22;6031;50.220;10.122;2022-12-05T10:46:06;4.40;99.90
11944;DHT22;6031;50.220;10.122;2022-12-05T10:48:35;4.50;99.90
11944;DHT22;6031;50.220;10.122;2022-12-05T10:51:02;4.50;99.90
11944;DHT22;6031;50.220;10.122;2022-12-05T10:55:59;4.30;99.90
11944;DHT22;6031;50.220;10.122;2022-12-05T10:58:28;4.30;99.90
11944;DHT22;6031;50.220;10.122;2022-12-05T11:01:13;4.40;99.90
11944;DHT22;6031;50.220;10.122;2022-12-05T11:03:41;4.40;99.90
11944;DHT22;6031;50.220;10.122;2022-12-05T11:06:16;4.40;99.90
11944;DHT22;6031;50.220;10.122;2022-12-05T11:08:42;4.40;99.90
11944;DHT22;6031;50.220;10.122;2022-12-05T11:11:26;4.40;99.90
11944;DHT22;6031;50.220;10.122;2022-12-05T11:14:19;4.40;99.90
11944;DHT22;6031;50.220;10.122;2022-12-05T11:16:57;4.40;99.90
11944;DHT22;6031;50.220;10.122;2022-12-05T11:19:33;4.40;99.90
11944;DHT22;6031;50.220;10.122;2022-12-05T11:21:59;4.40;99.90
11944;DHT22;6031;50.220;10.122;2022-12-05T11:24:33;4.40;99.90
11944;DHT22;6031;50.220;10.122;2022-12-05T11:27:23;4.40;99.90
11944;DHT22;6031;50.220;10.122;2022-12-05T11:30:20;4.40;99.90
11944;DHT22;6031;50.220;10.122;2022-12-05T11:32:46;4.40;99.90
11944;DHT22;6031;50.220;10.122;2022-12-05T11:37:39;4.20;99.90
11944;DHT22;6031;50.220;10.122;2022-12-05T11:40:16;4.30;99.90
11944;DHT22;6031;50.220;10.122;2022-12-05T11:48:27;4.30;99.90
11944;DHT22;6031;50.220;10.122;2022-12-05T11:54:23;4.30;99.90
11944;DHT22;6031;50.220;10.122;2022-12-05T11:56:54;4.30;99.90
11944;DHT22;6031;50.220;10.122;2022-12-05T12:00:00;4.30;99.90
11944;DHT22;6031;50.220;10.122;2022-12-05T12:02:33;4.30;99.90
11944;DHT22;6031;50.220;10.122;2022-12-05T12:08:06;4.20;99.90
11944;DHT22;6031;50.220;10.122;2022-12-05T12:13:21;4.20;99.90
11944;DHT22;6031;50.220;10.122;2022-12-05T12:24:54;4.20;99.90
11944;DHT22;6031;50.220;10.122;2022-12-05T12:30:21;4.10;99.90
11944;DHT22;6031;50.220;10.122;2022-12-05T12:33:10;4.10;99.90
11944;DHT22;6031;50.220;10.122;2022-12-05T12:35:45;4.20;99.90
11944;DHT22;6031;50.220;10.122;2022-12-05T12:38:39;4.30;99.90
11944;DHT22;6031;50.220;10.122;2022-12-05T12:41:20;4.20;99.90
11944;DHT22;6031;50.220;10.122;2022-12-05T12:46:54;4.30;99.90
11944;DHT22;6031;50.220;10.122;2022-12-05T12:52:06;4.40;99.90
11944;DHT22;6031;50.220;10.122;2022-12-05T13:00:29;4.30;99.90
11944;DHT22;6031;50.220;10.122;2022-12-05T13:03:09;4.30;99.90
11944;DHT22;6031;50.220;10.122;2022-12-05T13:06:12;4.30;99.90
11944;DHT22;6031;50.220;10.122;2022-12-05T13:08:51;4.30;99.90
11944;DHT22;6031;50.220;10.122;2022-12-05T13:11:19;4.40;99.90
11944;DHT22;6031;50.220;10.122;2022-12-05T13:13:54;4.40;99.90
11944;DHT22;6031;50.220;10.122;2022-12-05T13:16:32;4.40;99.90
11944;DHT22;6031;50.220;10.122;2022-12-05T13:19:00;4.50;99.90
11944;DHT22;6031;50.220;10.122;2022-12-05T13:21:27;4.60;99.90
11944;DHT22;6031;50.220;10.122;2022-12-05T13:23:55;4.60;99.90
11944;DHT22;6031;50.220;10.122;2022-12-05T13:26:21;4.60;99.90
11944;DHT22;6031;50.220;10.122;2022-12-05T13:29:00;4.60;99.90
11944;DHT22;6031;50.220;10.122;2022-12-05T13:31:45;4.60;99.90
11944;DHT22;6031;50.220;10.122;2022-12-05T13:34:44;4.60;99.90
11944;DHT22;6031;50.220;10.122;2022-12-05T13:37:21;4.60;99.90
11944;DHT22;6031;50.220;10.122;2022-12-05T13:40:17;4.70;99.90
11944;DHT22;6031;50.220;10.122;2022-12-05T13:43:03;4.80;99.90
11944;DHT22;6031;50.220;10.122;2022-12-05T13:45:29;4.90;99.90
11944;DHT22;6031;50.220;10.122;2022-12-05T13:53:27;4.90;99.90
11944;DHT22;6031;50.220;10.122;2022-12-05T13:55:58;4.80;99.90
11944;DHT22;6031;50.220;10.122;2022-12-05T14:00:50;4.70;99.90
11944;DHT22;6031;50.220;10.122;2022-12-05T14:05:59;4.70;99.90
11944;DHT22;6031;50.220;10.122;2022-12-05T14:15:52;4.50;99.90
11944;DHT22;6031;50.220;10.122;2022-12-05T14:21:52;4.40;99.90
11944;DHT22;6031;50.220;10.122;2022-12-05T14:24:34;4.40;99.90
11944;DHT22;6031;50.220;10.122;2022-12-05T14:32:37;4.40;99.90
11944;DHT22;6031;50.220;10.122;2022-12-05T14:35:11;4.30;99.90
11944;DHT22;6031;50.220;10.122;2022-12-05T14:38:01;4.30;99.90
11944;DHT22;6031;50.220;10.122;2022-12-05T14:43:20;4.30;99.90
11944;DHT22;6031;50.220;10.122;2022-12-05T14:50:48;4.30;99.90
11944;DHT22;6031;50.220;10.122;2022-12-05T14:55:55;4.30;99.90
11944;DHT22;6031;50.220;10.122;2022-12-05T15:01:05;4.30;99.90
11944;DHT22;6031;50.220;10.122;2022-12-05T15:03:35;4.30;99.90
11944;DHT22;6031;50.220;10.122;2022-12-05T15:06:04;4.30;99.90
11944;DHT22;6031;50.220;10.122;2022-12-05T15:08:34;4.30;99.90
11944;DHT22;6031;50.220;10.122;2022-12-05T15:11:06;4.20;99.90
11944;DHT22;6031;50.220;10.122;2022-12-05T15:13:34;4.20;99.90
11944;DHT22;6031;50.220;10.122;2022-12-05T15:16:05;4.20;99.90
11944;DHT22;6031;50.220;10.122;2022-12-05T15:18:39;4.20;99.90
11944;DHT22;6031;50.220;10.122;2022-12-05T15:23:59;4.20;99.90
11944;DHT22;6031;50.220;10.122;2022-12-05T15:29:27;4.10;99.90
11944;DHT22;6031;50.220;10.122;2022-12-05T15:32:02;4.10;99.90
11944;DHT22;6031;50.220;10.122;2022-12-05T15:37:16;4.00;99.90
11944;DHT22;6031;50.220;10.122;2022-12-05T15:39:49;4.00;99.90
11944;DHT22;6031;50.220;10.122;2022-12-05T15:42:15;4.00;99.90
11944;DHT22;6031;50.220;10.122;2022-12-05T15:44:41;4.10;99.90
11944;DHT22;6031;50.220;10.122;2022-12-05T15:47:19;4.00;99.90
11944;DHT22;6031;50.220;10.122;2022-12-05T15:49:46;4.00;99.90
11944;DHT22;6031;50.220;10.122;2022-12-05T15:52:33;4.00;99.90
11944;DHT22;6031;50.220;10.122;2022-12-05T15:55:05;4.00;99.90
11944;DHT22;6031;50.220;10.122;2022-12-05T15:57:41;4.00;99.90
11944;DHT22;6031;50.220;10.122;2022-12-05T16:00:17;4.00;99.90
11944;DHT22;6031;50.220;10.122;2022-12-05T16:02:53;4.00;99.90
11944;DHT22;6031;50.220;10.122;2022-12-05T16:05:21;3.90;99.90
11944;DHT22;6031;50.220;10.122;2022-12-05T16:07:49;4.00;99.90
11944;DHT22;6031;50.220;10.122;2022-12-05T16:10:15;3.90;99.90
11944;DHT22;6031;50.220;10.122;2022-12-05T16:12:45;4.00;99.90
11944;DHT22;6031;50.220;10.122;2022-12-05T16:15:15;4.00;99.90
11944;DHT22;6031;50.220;10.122;2022-12-05T16:17:45;4.00;99.90
11944;DHT22;6031;50.220;10.122;2022-12-05T16:20:21;4.00;99.90
11944;DHT22;6031;50.220;10.122;2022-12-05T16:22:50;4.00;99.90
11944;DHT22;6031;50.220;10.122;2022-12-05T16:25:23;4.00;99.90
11944;DHT22;6031;50.220;10.122;2022-12-05T16:28:15;4.10;99.90
11944;DHT22;6031;50.220;10.122;2022-12-05T16:30:53;4.00;99.90
11944;DHT22;6031;50.220;10.122;2022-12-05T16:33:19;4.00;99.90
11944;DHT22;6031;50.220;10.122;2022-12-05T16:35:46;3.90;99.90
11944;DHT22;6031;50.220;10.122;2022-12-05T16:38:20;3.90;99.90
11944;DHT22;6031;50.220;10.122;2022-12-05T16:45:48;3.90;99.90
11944;DHT22;6031;50.220;10.122;2022-12-05T16:48:20;3.90;99.90
11944;DHT22;6031;50.220;10.122;2022-12-05T16:50:46;4.00;99.90
11944;DHT22;6031;50.220;10.122;2022-12-05T16:55:42;4.00;99.90
11944;DHT22;6031;50.220;10.122;2022-12-05T16:58:11;3.90;99.90
11944;DHT22;6031;50.220;10.122;2022-12-05T17:00:38;3.90;99.90
11944;DHT22;6031;50.220;10.122;2022-12-05T17:03:03;3.90;99.90
11944;DHT22;6031;50.220;10.122;2022-12-05T17:05:29;3.90;99.90
11944;DHT22;6031;50.220;10.122;2022-12-05T17:07:55;3.90;99.90
11944;DHT22;6031;50.220;10.122;2022-12-05T17:10:20;3.90;99.90
11944;DHT22;6031;50.220;10.122;2022-12-05T17:12:46;4.00;99.90
11944;DHT22;6031;50.220;10.122;2022-12-05T17:15:16;4.00;99.90
11944;DHT22;6031;50.220;10.122;2022-12-05T17:17:43;4.00;99.90
11944;DHT22;6031;50.220;10.122;2022-12-05T17:20:09;4.00;99.90
11944;DHT22;6031;50.220;10.122;2022-12-05T17:22:34;4.00;99.90
11944;DHT22;6031;50.220;10.122;2022-12-05T17:25:00;4.00;99.90
11944;DHT22;6031;50.220;10.122;2022-12-05T17:27:25;3.90;99.90
11944;DHT22;6031;50.220;10.122;2022-12-05T17:29:51;3.90;99.90
11944;DHT22;6031;50.220;10.122;2022-12-05T17:32:17;4.00;99.90
11944;DHT22;6031;50.220;10.122;2022-12-05T17:34:42;3.90;99.90
11944;DHT22;6031;50.220;10.122;2022-12-05T17:37:08;4.00;99.90
11944;DHT22;6031;50.220;10.122;2022-12-05T17:39:33;4.00;99.90
11944;DHT22;6031;50.220;10.122;2022-12-05T17:41:59;4.00;99.90
11944;DHT22;6031;50.220;10.122;2022-12-05T17:44:24;4.00;99.90
11944;DHT22;6031;50.220;10.122;2022-12-05T17:46:50;4.00;99.90
11944;DHT22;6031;50.220;10.122;2022-12-05T17:49:17;4.00;99.90
11944;DHT22;6031;50.220;10.122;2022-12-05T17:51:43;4.00;99.90
11944;DHT22;6031;50.220;10.122;2022-12-05T17:54:09;4.00;99.90
11944;DHT22;6031;50.220;10.122;2022-12-05T17:56:34;4.00;99.90
11944;DHT22;6031;50.220;10.122;2022-12-05T17:59:00;4.00;99.90
11944;DHT22;6031;50.220;10.122;2022-12-05T18:01:26;4.00;99.90
11944;DHT22;6031;50.220;10.122;2022-12-05T18:03:51;4.00;99.90
11944;DHT22;6031;50.220;10.122;2022-12-05T18:06:17;4.00;99.90
11944;DHT22;6031;50.220;10.122;2022-12-05T18:08:43;4.00;99.90
11944;DHT22;6031;50.220;10.122;2022-12-05T18:11:10;4.00;99.90
11944;DHT22;6031;50.220;10.122;2022-12-05T18:13:36;4.00;99.90
11944;DHT22;6031;50.220;10.122;2022-12-05T18:16:02;4.00;99.90
11944;DHT22;6031;50.220;10.122;2022-12-05T18:18:28;4.10;99.90
11944;DHT22;6031;50.220;10.122;2022-12-05T18:21:03;4.00;99.90
11944;DHT22;6031;50.220;10.122;2022-12-05T18:23:28;4.00;99.90
11944;DHT22;6031;50.220;10.122;2022-12-05T18:25:58;4.00;99.90
11944;DHT22;6031;50.220;10.122;2022-12-05T18:28:24;4.00;99.90
11944;DHT22;6031;50.220;10.122;2022-12-05T18:30:50;4.00;99.90
11944;DHT22;6031;50.220;10.122;2022-12-05T18:33:15;4.00;99.90
11944;DHT22;6031;50.220;10.122;2022-12-05T18:35:41;4.00;99.90
11944;DHT22;6031;50.220;10.122;2022-12-05T18:38:09;4.00;99.90
11944;DHT22;6031;50.220;10.122;2022-12-05T18:40:35;4.10;99.90